sensor_id;sensor_type;location;lat;lon;timestamp;P1;durP1;ratioP1;P2;durP2;ratioP2
69305;SDS011;56427;51.580;4.656;2022-10-04T00:01:04;23.08;;;11.63;;
69305;SDS011;56427;51.580;4.656;2022-10-04T00:03:48;18.13;;;11.30;;
69305;SDS011;56427;51.580;4.656;2022-10-04T00:06:26;24.00;;;12.17;;
69305;SDS011;56427;51.580;4.656;2022-10-04T00:08:59;19.77;;;12.23;;
69305;SDS011;56427;51.580;4.656;2022-10-04T00:11:31;24.98;;;13.27;;
69305;SDS011;56427;51.580;4.656;2022-10-04T00:14:00;23.17;;;11.90;;
69305;SDS011;56427;51.580;4.656;2022-10-04T00:16:34;21.25;;;12.45;;
69305;SDS011;56427;51.580;4.656;2022-10-04T00:24:24;19.45;;;12.35;;
69305;SDS011;56427;51.580;4.656;2022-10-04T00:27:11;20.57;;;12.43;;
69305;SDS011;56427;51.580;4.656;2022-10-04T00:30:34;21.38;;;12.25;;
69305;SDS011;56427;51.580;4.656;2022-10-04T00:32:50;21.20;;;11.20;;
69305;SDS011;56427;51.580;4.656;2022-10-04T00:37:52;22.07;;;12.43;;
69305;SDS011;56427;51.580;4.656;2022-10-04T00:40:21;20.02;;;12.50;;
69305;SDS011;56427;51.580;4.656;2022-10-04T00:45:40;24.08;;;13.27;;
69305;SDS011;56427;51.580;4.656;2022-10-04T00:48:17;22.70;;;11.55;;
69305;SDS011;56427;51.580;4.656;2022-10-04T00:50:53;25.15;;;13.68;;
69305;SDS011;56427;51.580;4.656;2022-10-04T00:56:14;20.67;;;12.60;;
69305;SDS011;56427;51.580;4.656;2022-10-04T00:59:01;24.55;;;13.60;;
69305;SDS011;56427;51.580;4.656;2022-10-04T01:01:28;21.48;;;12.60;;
69305;SDS011;56427;51.580;4.656;2022-10-04T01:03:55;24.50;;;11.88;;
69305;SDS011;56427;51.580;4.656;2022-10-04T01:06:22;25.77;;;12.95;;
69305;SDS011;56427;51.580;4.656;2022-10-04T01:08:50;24.37;;;13.20;;
69305;SDS011;56427;51.580;4.656;2022-10-04T01:11:20;17.30;;;12.77;;
69305;SDS011;56427;51.580;4.656;2022-10-04T01:13:58;19.95;;;11.50;;
69305;SDS011;56427;51.580;4.656;2022-10-04T01:16:33;18.58;;;12.30;;
69305;SDS011;56427;51.580;4.656;2022-10-04T01:21:58;22.03;;;12.33;;
69305;SDS011;56427;51.580;4.656;2022-10-04T01:24:34;19.88;;;13.25;;
69305;SDS011;56427;51.580;4.656;2022-10-04T01:27:01;17.83;;;10.93;;
69305;SDS011;56427;51.580;4.656;2022-10-04T01:29:28;16.20;;;10.80;;
69305;SDS011;56427;51.580;4.656;2022-10-04T01:31:58;19.17;;;11.52;;
69305;SDS011;56427;51.580;4.656;2022-10-04T01:34:26;24.13;;;11.23;;
69305;SDS011;56427;51.580;4.656;2022-10-04T01:36:54;17.13;;;11.10;;
69305;SDS011;56427;51.580;4.656;2022-10-04T01:39:21;19.80;;;11.73;;
69305;SDS011;56427;51.580;4.656;2022-10-04T01:41:50;18.85;;;12.63;;
69305;SDS011;56427;51.580;4.656;2022-10-04T01:44:23;21.48;;;11.68;;
69305;SDS011;56427;51.580;4.656;2022-10-04T01:47:04;18.73;;;12.73;;
69305;SDS011;56427;51.580;4.656;2022-10-04T01:49:33;23.20;;;13.05;;
69305;SDS011;56427;51.580;4.656;2022-10-04T01:52:07;25.35;;;13.60;;
69305;SDS011;56427;51.580;4.656;2022-10-04T01:54:47;22.23;;;14.20;;
69305;SDS011;56427;51.580;4.656;2022-10-04T01:57:18;25.60;;;13.55;;
69305;SDS011;56427;51.580;4.656;2022-10-04T01:59:50;26.63;;;13.63;;
69305;SDS011;56427;51.580;4.656;2022-10-04T02:05:11;26.90;;;14.80;;
69305;SDS011;56427;51.580;4.656;2022-10-04T02:07:41;23.83;;;14.93;;
69305;SDS011;56427;51.580;4.656;2022-10-04T02:10:08;31.60;;;15.13;;
69305;SDS011;56427;51.580;4.656;2022-10-04T02:12:42;28.60;;;15.57;;
69305;SDS011;56427;51.580;4.656;2022-10-04T02:15:11;27.80;;;15.77;;
69305;SDS011;56427;51.580;4.656;2022-10-04T02:17:38;24.40;;;16.55;;
69305;SDS011;56427;51.580;4.656;2022-10-04T02:20:17;33.10;;;17.42;;
69305;SDS011;56427;51.580;4.656;2022-10-04T02:22:45;27.73;;;17.17;;
69305;SDS011;56427;51.580;4.656;2022-10-04T02:25:14;30.17;;;18.10;;
69305;SDS011;56427;51.580;4.656;2022-10-04T02:27:43;25.83;;;16.67;;
69305;SDS011;56427;51.580;4.656;2022-10-04T02:30:10;30.85;;;17.42;;
69305;SDS011;56427;51.580;4.656;2022-10-04T02:32:38;33.72;;;19.25;;
69305;SDS011;56427;51.580;4.656;2022-10-04T02:35:31;29.20;;;16.40;;
69305;SDS011;56427;51.580;4.656;2022-10-04T02:38:21;29.57;;;17.53;;
69305;SDS011;56427;51.580;4.656;2022-10-04T02:43:42;31.08;;;18.52;;
69305;SDS011;56427;51.580;4.656;2022-10-04T02:48:54;29.42;;;16.77;;
69305;SDS011;56427;51.580;4.656;2022-10-04T02:51:24;23.47;;;15.37;;
69305;SDS011;56427;51.580;4.656;2022-10-04T02:54:02;27.35;;;16.10;;
69305;SDS011;56427;51.580;4.656;2022-10-04T02:56:29;30.55;;;17.02;;
69305;SDS011;56427;51.580;4.656;2022-10-04T02:58:59;33.33;;;15.10;;
69305;SDS011;56427;51.580;4.656;2022-10-04T03:01:27;30.23;;;16.25;;
69305;SDS011;56427;51.580;4.656;2022-10-04T03:04:04;26.47;;;16.30;;
69305;SDS011;56427;51.580;4.656;2022-10-04T03:06:30;29.27;;;16.35;;
69305;SDS011;56427;51.580;4.656;2022-10-04T03:09:01;25.02;;;14.85;;
69305;SDS011;56427;51.580;4.656;2022-10-04T03:11:32;32.50;;;15.37;;
69305;SDS011;56427;51.580;4.656;2022-10-04T03:13:59;26.20;;;15.18;;
69305;SDS011;56427;51.580;4.656;2022-10-04T03:16:33;27.50;;;16.55;;
69305;SDS011;56427;51.580;4.656;2022-10-04T03:19:01;29.08;;;15.38;;
69305;SDS011;56427;51.580;4.656;2022-10-04T03:21:27;27.55;;;16.45;;
69305;SDS011;56427;51.580;4.656;2022-10-04T03:23:54;29.10;;;16.67;;
69305;SDS011;56427;51.580;4.656;2022-10-04T03:26:37;34.75;;;17.55;;
69305;SDS011;56427;51.580;4.656;2022-10-04T03:29:07;25.73;;;16.50;;
69305;SDS011;56427;51.580;4.656;2022-10-04T03:31:39;31.87;;;16.67;;
69305;SDS011;56427;51.580;4.656;2022-10-04T03:34:18;33.53;;;18.77;;
69305;SDS011;56427;51.580;4.656;2022-10-04T03:36:46;29.42;;;16.15;;
69305;SDS011;56427;51.580;4.656;2022-10-04T03:39:24;30.92;;;17.70;;
69305;SDS011;56427;51.580;4.656;2022-10-04T03:41:52;33.28;;;16.77;;
69305;SDS011;56427;51.580;4.656;2022-10-04T03:44:18;29.20;;;16.73;;
69305;SDS011;56427;51.580;4.656;2022-10-04T03:46:45;34.53;;;19.17;;
69305;SDS011;56427;51.580;4.656;2022-10-04T03:49:12;32.97;;;17.95;;
69305;SDS011;56427;51.580;4.656;2022-10-04T03:51:43;34.65;;;18.30;;
69305;SDS011;56427;51.580;4.656;2022-10-04T03:54:14;36.03;;;18.58;;
69305;SDS011;56427;51.580;4.656;2022-10-04T03:56:43;31.17;;;16.87;;
69305;SDS011;56427;51.580;4.656;2022-10-04T03:59:09;29.08;;;16.85;;
69305;SDS011;56427;51.580;4.656;2022-10-04T04:04:22;35.03;;;17.80;;
69305;SDS011;56427;51.580;4.656;2022-10-04T04:07:04;27.95;;;16.40;;
69305;SDS011;56427;51.580;4.656;2022-10-04T04:10:37;31.98;;;18.40;;
69305;SDS011;56427;51.580;4.656;2022-10-04T04:12:45;31.13;;;16.15;;
69305;SDS011;56427;51.580;4.656;2022-10-04T04:15:18;30.45;;;17.45;;
69305;SDS011;56427;51.580;4.656;2022-10-04T04:17:47;34.20;;;17.63;;
69305;SDS011;56427;51.580;4.656;2022-10-04T04:20:24;29.25;;;15.85;;
69305;SDS011;56427;51.580;4.656;2022-10-04T04:23:07;30.75;;;17.90;;
69305;SDS011;56427;51.580;4.656;2022-10-04T04:25:46;33.33;;;17.10;;
69305;SDS011;56427;51.580;4.656;2022-10-04T04:28:19;30.35;;;15.95;;
69305;SDS011;56427;51.580;4.656;2022-10-04T04:30:53;29.67;;;17.00;;
69305;SDS011;56427;51.580;4.656;2022-10-04T04:33:30;31.17;;;15.95;;
69305;SDS011;56427;51.580;4.656;2022-10-04T04:36:02;44.45;;;18.30;;
69305;SDS011;56427;51.580;4.656;2022-10-04T04:38:29;28.23;;;16.13;;
69305;SDS011;56427;51.580;4.656;2022-10-04T04:40:55;27.52;;;15.40;;
69305;SDS011;56427;51.580;4.656;2022-10-04T04:43:24;34.92;;;17.27;;
69305;SDS011;56427;51.580;4.656;2022-10-04T04:45:51;30.10;;;17.30;;
69305;SDS011;56427;51.580;4.656;2022-10-04T04:48:17;35.15;;;17.85;;
69305;SDS011;56427;51.580;4.656;2022-10-04T04:50:49;33.47;;;19.15;;
69305;SDS011;56427;51.580;4.656;2022-10-04T04:53:19;26.80;;;16.17;;
69305;SDS011;56427;51.580;4.656;2022-10-04T04:55:49;28.13;;;16.50;;
69305;SDS011;56427;51.580;4.656;2022-10-04T04:58:22;33.27;;;16.70;;
69305;SDS011;56427;51.580;4.656;2022-10-04T05:00:55;32.03;;;16.48;;
69305;SDS011;56427;51.580;4.656;2022-10-04T05:03:23;30.98;;;18.10;;
69305;SDS011;56427;51.580;4.656;2022-10-04T05:05:49;29.50;;;16.52;;
69305;SDS011;56427;51.580;4.656;2022-10-04T05:08:26;24.63;;;15.23;;
69305;SDS011;56427;51.580;4.656;2022-10-04T05:13:41;37.65;;;18.08;;
69305;SDS011;56427;51.580;4.656;2022-10-04T05:19:02;27.13;;;16.10;;
69305;SDS011;56427;51.580;4.656;2022-10-04T05:21:37;33.08;;;17.45;;
69305;SDS011;56427;51.580;4.656;2022-10-04T05:24:10;40.63;;;19.00;;
69305;SDS011;56427;51.580;4.656;2022-10-04T05:26:41;29.63;;;16.42;;
69305;SDS011;56427;51.580;4.656;2022-10-04T05:29:08;29.83;;;16.67;;
69305;SDS011;56427;51.580;4.656;2022-10-04T05:31:43;34.33;;;17.58;;
69305;SDS011;56427;51.580;4.656;2022-10-04T05:34:27;38.25;;;18.55;;
69305;SDS011;56427;51.580;4.656;2022-10-04T05:37:04;39.78;;;19.10;;
69305;SDS011;56427;51.580;4.656;2022-10-04T05:40:07;36.60;;;18.40;;
69305;SDS011;56427;51.580;4.656;2022-10-04T05:42:47;42.50;;;19.57;;
69305;SDS011;56427;51.580;4.656;2022-10-04T05:45:18;37.97;;;19.00;;
69305;SDS011;56427;51.580;4.656;2022-10-04T05:47:48;45.65;;;20.92;;
69305;SDS011;56427;51.580;4.656;2022-10-04T05:50:19;31.45;;;16.52;;
69305;SDS011;56427;51.580;4.656;2022-10-04T05:52:51;38.63;;;18.08;;
69305;SDS011;56427;51.580;4.656;2022-10-04T05:55:26;35.13;;;19.27;;
69305;SDS011;56427;51.580;4.656;2022-10-04T05:58:20;34.97;;;18.20;;
69305;SDS011;56427;51.580;4.656;2022-10-04T06:06:38;33.45;;;17.52;;
69305;SDS011;56427;51.580;4.656;2022-10-04T06:09:34;35.65;;;19.33;;
69305;SDS011;56427;51.580;4.656;2022-10-04T06:23:42;28.20;;;16.88;;
69305;SDS011;56427;51.580;4.656;2022-10-04T06:26:17;33.33;;;17.05;;
69305;SDS011;56427;51.580;4.656;2022-10-04T06:29:11;28.45;;;15.88;;
69305;SDS011;56427;51.580;4.656;2022-10-04T06:34:54;32.03;;;16.73;;
69305;SDS011;56427;51.580;4.656;2022-10-04T06:45:26;31.83;;;15.52;;
69305;SDS011;56427;51.580;4.656;2022-10-04T06:48:08;34.75;;;17.13;;
69305;SDS011;56427;51.580;4.656;2022-10-04T06:53:11;22.70;;;14.47;;
69305;SDS011;56427;51.580;4.656;2022-10-04T07:03:40;26.08;;;12.45;;
69305;SDS011;56427;51.580;4.656;2022-10-04T07:06:13;19.63;;;11.40;;
69305;SDS011;56427;51.580;4.656;2022-10-04T07:08:49;19.85;;;11.10;;
69305;SDS011;56427;51.580;4.656;2022-10-04T07:16:24;23.60;;;10.53;;
69305;SDS011;56427;51.580;4.656;2022-10-04T07:21:26;16.98;;;8.82;;
69305;SDS011;56427;51.580;4.656;2022-10-04T07:24:20;15.50;;;8.30;;
69305;SDS011;56427;51.580;4.656;2022-10-04T07:26:51;13.73;;;8.98;;
69305;SDS011;56427;51.580;4.656;2022-10-04T07:29:26;13.90;;;8.17;;
69305;SDS011;56427;51.580;4.656;2022-10-04T07:32:04;13.05;;;8.00;;
69305;SDS011;56427;51.580;4.656;2022-10-04T07:34:53;14.95;;;7.63;;
69305;SDS011;56427;51.580;4.656;2022-10-04T07:37:26;15.23;;;8.57;;
69305;SDS011;56427;51.580;4.656;2022-10-04T07:40:03;13.60;;;7.95;;
69305;SDS011;56427;51.580;4.656;2022-10-04T07:42:51;13.93;;;8.17;;
69305;SDS011;56427;51.580;4.656;2022-10-04T07:45:31;12.70;;;7.53;;
69305;SDS011;56427;51.580;4.656;2022-10-04T07:48:03;17.88;;;8.18;;
69305;SDS011;56427;51.580;4.656;2022-10-04T07:51:22;13.88;;;8.10;;
69305;SDS011;56427;51.580;4.656;2022-10-04T07:56:16;13.73;;;7.70;;
69305;SDS011;56427;51.580;4.656;2022-10-04T08:02:15;17.42;;;8.63;;
69305;SDS011;56427;51.580;4.656;2022-10-04T08:05:21;12.02;;;7.43;;
69305;SDS011;56427;51.580;4.656;2022-10-04T08:08:21;15.73;;;8.35;;
69305;SDS011;56427;51.580;4.656;2022-10-04T08:16:32;13.40;;;7.43;;
69305;SDS011;56427;51.580;4.656;2022-10-04T08:22:04;15.07;;;8.70;;
69305;SDS011;56427;51.580;4.656;2022-10-04T08:28:02;13.73;;;7.78;;
69305;SDS011;56427;51.580;4.656;2022-10-04T08:31:08;14.88;;;8.73;;
69305;SDS011;56427;51.580;4.656;2022-10-04T08:37:23;14.80;;;8.55;;
69305;SDS011;56427;51.580;4.656;2022-10-04T08:43:21;14.60;;;8.02;;
69305;SDS011;56427;51.580;4.656;2022-10-04T09:01:05;12.50;;;7.72;;
69305;SDS011;56427;51.580;4.656;2022-10-04T09:07:03;18.05;;;7.85;;
69305;SDS011;56427;51.580;4.656;2022-10-04T09:18:03;17.58;;;8.32;;
69305;SDS011;56427;51.580;4.656;2022-10-04T09:23:39;13.97;;;7.63;;
69305;SDS011;56427;51.580;4.656;2022-10-04T09:32:06;14.70;;;8.43;;
69305;SDS011;56427;51.580;4.656;2022-10-04T09:40:20;14.88;;;8.43;;
69305;SDS011;56427;51.580;4.656;2022-10-04T09:43:20;16.77;;;8.70;;
69305;SDS011;56427;51.580;4.656;2022-10-04T09:59:35;15.25;;;8.30;;
69305;SDS011;56427;51.580;4.656;2022-10-04T10:05:09;18.90;;;9.37;;
69305;SDS011;56427;51.580;4.656;2022-10-04T10:10:38;13.32;;;7.57;;
69305;SDS011;56427;51.580;4.656;2022-10-04T10:13:37;15.35;;;7.22;;
69305;SDS011;56427;51.580;4.656;2022-10-04T10:16:05;13.48;;;6.80;;
69305;SDS011;56427;51.580;4.656;2022-10-04T10:18:51;12.43;;;6.50;;
69305;SDS011;56427;51.580;4.656;2022-10-04T10:26:56;14.20;;;7.38;;
69305;SDS011;56427;51.580;4.656;2022-10-04T10:35:14;12.55;;;6.93;;
69305;SDS011;56427;51.580;4.656;2022-10-04T10:40:45;15.25;;;6.47;;
69305;SDS011;56427;51.580;4.656;2022-10-04T11:00:42;10.47;;;5.37;;
69305;SDS011;56427;51.580;4.656;2022-10-04T11:03:30;10.23;;;5.35;;
69305;SDS011;56427;51.580;4.656;2022-10-04T11:06:21;8.77;;;4.72;;
69305;SDS011;56427;51.580;4.656;2022-10-04T11:09:36;12.80;;;5.35;;
69305;SDS011;56427;51.580;4.656;2022-10-04T11:12:17;9.32;;;4.75;;
69305;SDS011;56427;51.580;4.656;2022-10-04T11:17:48;13.40;;;4.95;;
69305;SDS011;56427;51.580;4.656;2022-10-04T11:40:23;11.90;;;5.38;;
69305;SDS011;56427;51.580;4.656;2022-10-04T11:43:07;10.33;;;4.60;;
69305;SDS011;56427;51.580;4.656;2022-10-04T12:22:33;10.70;;;4.70;;
69305;SDS011;56427;51.580;4.656;2022-10-04T12:25:22;9.07;;;4.83;;
69305;SDS011;56427;51.580;4.656;2022-10-04T12:30:24;11.33;;;4.53;;
69305;SDS011;56427;51.580;4.656;2022-10-04T12:33:05;10.18;;;5.05;;
69305;SDS011;56427;51.580;4.656;2022-10-04T12:35:46;15.02;;;6.10;;
69305;SDS011;56427;51.580;4.656;2022-10-04T12:38:18;10.93;;;5.43;;
69305;SDS011;56427;51.580;4.656;2022-10-04T13:03:01;10.60;;;5.07;;
69305;SDS011;56427;51.580;4.656;2022-10-04T13:08:50;10.67;;;4.77;;
69305;SDS011;56427;51.580;4.656;2022-10-04T13:33:43;10.85;;;4.50;;
69305;SDS011;56427;51.580;4.656;2022-10-04T13:36:16;13.90;;;5.63;;
69305;SDS011;56427;51.580;4.656;2022-10-04T13:42:23;8.90;;;4.68;;
69305;SDS011;56427;51.580;4.656;2022-10-04T13:45:04;8.57;;;4.43;;
69305;SDS011;56427;51.580;4.656;2022-10-04T13:53:36;9.30;;;4.47;;
69305;SDS011;56427;51.580;4.656;2022-10-04T14:08:08;8.60;;;4.17;;
69305;SDS011;56427;51.580;4.656;2022-10-04T14:27:22;7.60;;;3.33;;
69305;SDS011;56427;51.580;4.656;2022-10-04T14:30:24;7.35;;;3.50;;
69305;SDS011;56427;51.580;4.656;2022-10-04T14:32:58;7.50;;;3.63;;
69305;SDS011;56427;51.580;4.656;2022-10-04T14:47:59;8.50;;;3.78;;
69305;SDS011;56427;51.580;4.656;2022-10-04T14:50:44;7.87;;;3.67;;
69305;SDS011;56427;51.580;4.656;2022-10-04T14:56:31;10.63;;;4.43;;
69305;SDS011;56427;51.580;4.656;2022-10-04T15:01:37;7.13;;;3.95;;
69305;SDS011;56427;51.580;4.656;2022-10-04T15:17:39;10.47;;;4.70;;
69305;SDS011;56427;51.580;4.656;2022-10-04T15:25:52;7.50;;;4.03;;
69305;SDS011;56427;51.580;4.656;2022-10-04T15:42:53;7.85;;;3.55;;
69305;SDS011;56427;51.580;4.656;2022-10-04T15:56:20;6.28;;;3.63;;
69305;SDS011;56427;51.580;4.656;2022-10-04T16:05:32;8.73;;;3.72;;
69305;SDS011;56427;51.580;4.656;2022-10-04T16:18:43;8.05;;;3.30;;
69305;SDS011;56427;51.580;4.656;2022-10-04T16:21:42;7.28;;;3.47;;
69305;SDS011;56427;51.580;4.656;2022-10-04T16:32:10;8.95;;;3.72;;
69305;SDS011;56427;51.580;4.656;2022-10-04T16:34:56;5.90;;;3.38;;
69305;SDS011;56427;51.580;4.656;2022-10-04T16:40:36;7.13;;;3.30;;
69305;SDS011;56427;51.580;4.656;2022-10-04T16:56:20;9.55;;;3.70;;
69305;SDS011;56427;51.580;4.656;2022-10-04T16:58:54;10.60;;;4.07;;
69305;SDS011;56427;51.580;4.656;2022-10-04T17:03:55;6.28;;;3.83;;
69305;SDS011;56427;51.580;4.656;2022-10-04T17:06:45;6.32;;;3.78;;
69305;SDS011;56427;51.580;4.656;2022-10-04T17:15:32;11.02;;;4.00;;
69305;SDS011;56427;51.580;4.656;2022-10-04T17:28:56;10.70;;;4.07;;
69305;SDS011;56427;51.580;4.656;2022-10-04T17:36:34;7.05;;;4.50;;
69305;SDS011;56427;51.580;4.656;2022-10-04T17:41:58;8.32;;;4.88;;
69305;SDS011;56427;51.580;4.656;2022-10-04T17:44:28;7.65;;;4.45;;
69305;SDS011;56427;51.580;4.656;2022-10-04T17:47:51;7.75;;;4.53;;
69305;SDS011;56427;51.580;4.656;2022-10-04T17:53:27;10.43;;;5.10;;
69305;SDS011;56427;51.580;4.656;2022-10-04T17:56:21;9.18;;;4.70;;
69305;SDS011;56427;51.580;4.656;2022-10-04T17:58:54;9.82;;;4.40;;
69305;SDS011;56427;51.580;4.656;2022-10-04T18:01:24;10.77;;;4.35;;
69305;SDS011;56427;51.580;4.656;2022-10-04T18:03:58;7.28;;;4.50;;
69305;SDS011;56427;51.580;4.656;2022-10-04T18:09:12;10.85;;;4.75;;
69305;SDS011;56427;51.580;4.656;2022-10-04T18:11:50;9.40;;;4.38;;
69305;SDS011;56427;51.580;4.656;2022-10-04T18:17:56;10.18;;;3.70;;
69305;SDS011;56427;51.580;4.656;2022-10-04T18:22:56;7.68;;;4.15;;
69305;SDS011;56427;51.580;4.656;2022-10-04T18:25:28;8.25;;;4.07;;
69305;SDS011;56427;51.580;4.656;2022-10-04T18:30:33;8.75;;;4.18;;
69305;SDS011;56427;51.580;4.656;2022-10-04T18:33:21;7.23;;;4.10;;
69305;SDS011;56427;51.580;4.656;2022-10-04T18:36:43;7.97;;;4.07;;
69305;SDS011;56427;51.580;4.656;2022-10-04T18:41:41;10.88;;;4.47;;
69305;SDS011;56427;51.580;4.656;2022-10-04T18:44:20;9.80;;;4.18;;
69305;SDS011;56427;51.580;4.656;2022-10-04T18:46:56;10.53;;;4.77;;
69305;SDS011;56427;51.580;4.656;2022-10-04T18:49:30;8.23;;;4.32;;
69305;SDS011;56427;51.580;4.656;2022-10-04T18:55:11;9.73;;;4.18;;
69305;SDS011;56427;51.580;4.656;2022-10-04T18:57:46;10.00;;;4.40;;
69305;SDS011;56427;51.580;4.656;2022-10-04T19:00:47;11.17;;;4.60;;
69305;SDS011;56427;51.580;4.656;2022-10-04T19:03:46;9.57;;;4.70;;
69305;SDS011;56427;51.580;4.656;2022-10-04T19:06:22;8.77;;;4.30;;
69305;SDS011;56427;51.580;4.656;2022-10-04T19:11:22;10.55;;;5.70;;
69305;SDS011;56427;51.580;4.656;2022-10-04T19:14:10;12.60;;;6.07;;
69305;SDS011;56427;51.580;4.656;2022-10-04T19:16:42;12.00;;;6.03;;
69305;SDS011;56427;51.580;4.656;2022-10-04T19:24:58;9.15;;;6.80;;
69305;SDS011;56427;51.580;4.656;2022-10-04T19:27:48;13.00;;;6.00;;
69305;SDS011;56427;51.580;4.656;2022-10-04T19:30:18;11.32;;;6.10;;
69305;SDS011;56427;51.580;4.656;2022-10-04T19:41:24;12.07;;;5.80;;
69305;SDS011;56427;51.580;4.656;2022-10-04T19:46:58;11.30;;;5.60;;
69305;SDS011;56427;51.580;4.656;2022-10-04T19:49:36;8.73;;;5.43;;
69305;SDS011;56427;51.580;4.656;2022-10-04T19:52:32;10.82;;;5.95;;
69305;SDS011;56427;51.580;4.656;2022-10-04T19:55:15;13.47;;;6.10;;
69305;SDS011;56427;51.580;4.656;2022-10-04T19:58:10;11.65;;;6.03;;
69305;SDS011;56427;51.580;4.656;2022-10-04T20:00:41;10.15;;;6.22;;
69305;SDS011;56427;51.580;4.656;2022-10-04T20:03:10;10.33;;;6.00;;
69305;SDS011;56427;51.580;4.656;2022-10-04T20:05:51;12.05;;;5.55;;
69305;SDS011;56427;51.580;4.656;2022-10-04T20:11:21;14.88;;;6.43;;
69305;SDS011;56427;51.580;4.656;2022-10-04T20:19:20;9.55;;;5.65;;
69305;SDS011;56427;51.580;4.656;2022-10-04T20:27:05;11.83;;;6.00;;
69305;SDS011;56427;51.580;4.656;2022-10-04T20:29:56;10.65;;;5.82;;
69305;SDS011;56427;51.580;4.656;2022-10-04T20:34:50;15.07;;;6.25;;
69305;SDS011;56427;51.580;4.656;2022-10-04T20:37:16;14.00;;;6.00;;
69305;SDS011;56427;51.580;4.656;2022-10-04T20:44:57;10.82;;;5.95;;
69305;SDS011;56427;51.580;4.656;2022-10-04T20:47:44;10.68;;;6.20;;
69305;SDS011;56427;51.580;4.656;2022-10-04T20:52:42;12.13;;;6.57;;
69305;SDS011;56427;51.580;4.656;2022-10-04T20:55:24;13.90;;;7.18;;
69305;SDS011;56427;51.580;4.656;2022-10-04T20:57:56;12.82;;;6.35;;
69305;SDS011;56427;51.580;4.656;2022-10-04T21:00:24;14.05;;;6.78;;
69305;SDS011;56427;51.580;4.656;2022-10-04T21:03:07;12.23;;;6.78;;
69305;SDS011;56427;51.580;4.656;2022-10-04T21:05:37;13.33;;;6.53;;
69305;SDS011;56427;51.580;4.656;2022-10-04T21:08:12;10.32;;;6.45;;
69305;SDS011;56427;51.580;4.656;2022-10-04T21:10:39;13.20;;;7.13;;
69305;SDS011;56427;51.580;4.656;2022-10-04T21:16:35;10.55;;;6.47;;
69305;SDS011;56427;51.580;4.656;2022-10-04T21:22:08;13.93;;;7.13;;
69305;SDS011;56427;51.580;4.656;2022-10-04T21:27:06;14.90;;;6.90;;
69305;SDS011;56427;51.580;4.656;2022-10-04T21:29:37;12.68;;;6.75;;
69305;SDS011;56427;51.580;4.656;2022-10-04T21:32:03;12.60;;;6.03;;
69305;SDS011;56427;51.580;4.656;2022-10-04T21:34:29;12.63;;;6.45;;
69305;SDS011;56427;51.580;4.656;2022-10-04T21:36:55;13.73;;;7.10;;
69305;SDS011;56427;51.580;4.656;2022-10-04T21:39:20;14.43;;;7.27;;
69305;SDS011;56427;51.580;4.656;2022-10-04T21:41:46;12.93;;;6.80;;
69305;SDS011;56427;51.580;4.656;2022-10-04T21:44:12;11.27;;;7.57;;
69305;SDS011;56427;51.580;4.656;2022-10-04T21:46:37;11.90;;;6.93;;
69305;SDS011;56427;51.580;4.656;2022-10-04T21:49:03;10.97;;;6.93;;
69305;SDS011;56427;51.580;4.656;2022-10-04T21:51:28;13.57;;;7.40;;
69305;SDS011;56427;51.580;4.656;2022-10-04T21:54:01;15.38;;;7.10;;
69305;SDS011;56427;51.580;4.656;2022-10-04T21:56:29;12.50;;;7.32;;
69305;SDS011;56427;51.580;4.656;2022-10-04T21:58:55;12.23;;;7.70;;
69305;SDS011;56427;51.580;4.656;2022-10-04T22:01:20;14.37;;;7.53;;
69305;SDS011;56427;51.580;4.656;2022-10-04T22:03:46;13.00;;;7.13;;
69305;SDS011;56427;51.580;4.656;2022-10-04T22:06:11;13.37;;;7.60;;
69305;SDS011;56427;51.580;4.656;2022-10-04T22:08:36;14.33;;;8.13;;
69305;SDS011;56427;51.580;4.656;2022-10-04T22:11:03;11.85;;;7.60;;
69305;SDS011;56427;51.580;4.656;2022-10-04T22:13:28;12.98;;;7.30;;
69305;SDS011;56427;51.580;4.656;2022-10-04T22:15:54;13.07;;;7.33;;
69305;SDS011;56427;51.580;4.656;2022-10-04T22:18:19;14.77;;;7.10;;
69305;SDS011;56427;51.580;4.656;2022-10-04T22:20:45;12.95;;;7.70;;
69305;SDS011;56427;51.580;4.656;2022-10-04T22:23:13;13.83;;;7.23;;
69305;SDS011;56427;51.580;4.656;2022-10-04T22:25:44;14.33;;;7.43;;
69305;SDS011;56427;51.580;4.656;2022-10-04T22:28:17;11.98;;;7.15;;
69305;SDS011;56427;51.580;4.656;2022-10-04T22:30:51;11.63;;;7.30;;
69305;SDS011;56427;51.580;4.656;2022-10-04T22:33:22;13.30;;;6.65;;
69305;SDS011;56427;51.580;4.656;2022-10-04T22:35:49;12.80;;;7.00;;
69305;SDS011;56427;51.580;4.656;2022-10-04T22:38:14;14.10;;;7.83;;
69305;SDS011;56427;51.580;4.656;2022-10-04T22:40:40;11.70;;;7.07;;
69305;SDS011;56427;51.580;4.656;2022-10-04T22:43:09;13.43;;;7.20;;
69305;SDS011;56427;51.580;4.656;2022-10-04T22:45:36;12.05;;;6.95;;
69305;SDS011;56427;51.580;4.656;2022-10-04T22:48:05;14.07;;;7.40;;
69305;SDS011;56427;51.580;4.656;2022-10-04T22:50:37;12.40;;;7.85;;
69305;SDS011;56427;51.580;4.656;2022-10-04T22:53:09;15.45;;;8.52;;
69305;SDS011;56427;51.580;4.656;2022-10-04T22:55:38;11.43;;;7.13;;
69305;SDS011;56427;51.580;4.656;2022-10-04T22:58:04;14.70;;;7.40;;
69305;SDS011;56427;51.580;4.656;2022-10-04T23:00:30;15.47;;;7.23;;
69305;SDS011;56427;51.580;4.656;2022-10-04T23:02:55;12.80;;;6.93;;
69305;SDS011;56427;51.580;4.656;2022-10-04T23:05:20;13.73;;;6.72;;
69305;SDS011;56427;51.580;4.656;2022-10-04T23:07:47;12.20;;;7.20;;
69305;SDS011;56427;51.580;4.656;2022-10-04T23:10:13;12.80;;;6.45;;
69305;SDS011;56427;51.580;4.656;2022-10-04T23:12:43;12.68;;;7.22;;
69305;SDS011;56427;51.580;4.656;2022-10-04T23:15:13;10.27;;;6.80;;
69305;SDS011;56427;51.580;4.656;2022-10-04T23:17:40;10.97;;;7.03;;
69305;SDS011;56427;51.580;4.656;2022-10-04T23:20:10;12.43;;;6.80;;
69305;SDS011;56427;51.580;4.656;2022-10-04T23:22:38;11.48;;;6.90;;
69305;SDS011;56427;51.580;4.656;2022-10-04T23:25:23;11.60;;;6.97;;
69305;SDS011;56427;51.580;4.656;2022-10-04T23:27:51;12.98;;;6.80;;
69305;SDS011;56427;51.580;4.656;2022-10-04T23:30:23;12.48;;;7.10;;
69305;SDS011;56427;51.580;4.656;2022-10-04T23:32:49;11.43;;;6.87;;
69305;SDS011;56427;51.580;4.656;2022-10-04T23:35:18;11.48;;;6.85;;
69305;SDS011;56427;51.580;4.656;2022-10-04T23:37:50;13.38;;;7.18;;
69305;SDS011;56427;51.580;4.656;2022-10-04T23:40:18;14.00;;;7.68;;
69305;SDS011;56427;51.580;4.656;2022-10-04T23:42:46;11.33;;;7.13;;
69305;SDS011;56427;51.580;4.656;2022-10-04T23:45:17;14.27;;;7.57;;
69305;SDS011;56427;51.580;4.656;2022-10-04T23:47:46;13.18;;;7.60;;
69305;SDS011;56427;51.580;4.656;2022-10-04T23:50:18;13.90;;;7.47;;
69305;SDS011;56427;51.580;4.656;2022-10-04T23:52:44;12.90;;;7.65;;
69305;SDS011;56427;51.580;4.656;2022-10-04T23:55:15;11.63;;;8.10;;
69305;SDS011;56427;51.580;4.656;2022-10-04T23:57:42;13.00;;;7.15;;
